Time;durP1;ratioP1;P1;durP2;ratioP2;P2;SDS_P1;SDS_P2;PMS_P1;PMS_P2;Temp;Humidity;BMP_temperature;BMP_pressure;BME280_temperature;BME280_humidity;BME280_pressure;Samples;Min_cycle;Max_cycle;Signal;HPM_P1;HPM_P2
2023/09/23 00:00:46;;;;;;;0.40;0.40;;;;;;;14.73;59.80;100081.34;5014032;28;20042;-82
2023/09/23 00:03:13;;;;;;;0.40;0.40;;;;;;;14.74;59.80;100075.69;5013848;28;20463;-82
2023/09/23 00:05:43;;;;;;;0.40;0.40;;;;;;;14.71;59.81;100081.63;5014401;28;20057;-82
2023/09/23 00:08:11;;;;;;;0.40;0.40;;;;;;;14.64;59.80;100075.50;5012730;28;20053;-82
2023/09/23 00:10:38;;;;;;;0.40;0.40;;;;;;;14.68;59.76;100078.56;5029139;28;20123;-81
2023/09/23 00:13:06;;;;;;;0.40;0.40;;;;;;;14.62;60.28;100080.34;5013849;28;20397;-81
2023/09/23 00:15:35;;;;;;;0.40;0.40;;;;;;;14.59;60.10;100080.84;5014063;28;20481;-82
2023/09/23 00:18:04;;;;;;;0.40;0.40;;;;;;;14.58;60.20;100081.91;5014102;28;20050;-83
2023/09/23 00:20:32;;;;;;;0.40;0.40;;;;;;;14.52;60.26;100082.88;5013659;28;20061;-83
2023/09/23 00:23:02;;;;;;;0.40;0.40;;;;;;;14.52;60.34;100086.41;5029063;28;20136;-82
2023/09/23 00:25:29;;;;;;;0.40;0.40;;;;;;;14.51;60.41;100076.63;5013605;28;20050;-83
2023/09/23 00:27:57;;;;;;;0.40;0.40;;;;;;;14.52;60.41;100074.72;5013627;28;20100;-82
2023/09/23 00:30:26;;;;;;;0.40;0.40;;;;;;;14.51;60.34;100078.50;5028736;28;20053;-82
2023/09/23 00:32:54;;;;;;;0.38;0.38;;;;;;;14.46;60.56;100081.97;5028866;28;20412;-83
2023/09/23 00:35:21;;;;;;;0.40;0.40;;;;;;;14.38;60.79;100076.06;5012930;28;20046;-82
2023/09/23 00:37:49;;;;;;;0.40;0.40;;;;;;;14.36;60.77;100072.81;5013843;28;20623;-83
2023/09/23 00:40:23;;;;;;;0.40;0.40;;;;;;;14.35;61.03;100079.28;5013679;28;20056;-82
2023/09/23 00:42:51;;;;;;;0.40;0.40;;;;;;;14.27;61.41;100084.03;5013209;28;20132;-84
2023/09/23 00:45:22;;;;;;;0.40;0.40;;;;;;;14.28;61.36;100082.13;5014186;28;20050;-84
2023/09/23 00:47:49;;;;;;;0.40;0.40;;;;;;;14.19;61.50;100070.84;5014495;28;20105;-83
2023/09/23 00:50:20;;;;;;;0.40;0.40;;;;;;;14.21;61.59;100079.59;5027999;28;20061;-82
2023/09/23 00:52:52;;;;;;;0.40;0.40;;;;;;;14.17;61.57;100086.56;5013152;28;20467;-84
2023/09/23 00:55:20;;;;;;;0.40;0.40;;;;;;;14.16;61.60;100084.91;5027608;28;20066;-83
2023/09/23 00:57:48;;;;;;;0.40;0.40;;;;;;;14.20;61.49;100082.53;5012834;28;20497;-82
2023/09/23 01:00:24;;;;;;;0.45;0.45;;;;;;;14.16;61.58;100082.19;5012763;28;20126;-82
2023/09/23 01:02:55;;;;;;;0.40;0.40;;;;;;;14.14;61.72;100072.66;5011899;28;20077;-84
2023/09/23 01:05:29;;;;;;;0.40;0.40;;;;;;;14.15;61.74;100074.28;5012993;28;20049;-83
2023/09/23 01:08:04;;;;;;;0.50;0.50;;;;;;;14.10;62.04;100077.72;5012936;28;20508;-82
2023/09/23 01:10:31;;;;;;;0.50;0.50;;;;;;;14.06;62.01;100076.56;5011639;28;20050;-83
2023/09/23 01:13:00;;;;;;;0.40;0.40;;;;;;;14.01;62.07;100076.47;5013299;28;20053;-82
2023/09/23 01:15:28;;;;;;;0.40;0.40;;;;;;;13.99;62.30;100075.88;5012821;28;20415;-83
2023/09/23 01:17:56;;;;;;;0.47;0.47;;;;;;;13.98;62.15;100074.25;5012016;28;20136;-82
2023/09/23 01:20:25;;;;;;;0.50;0.50;;;;;;;14.00;62.18;100074.81;5011905;28;20452;-82
2023/09/23 01:22:54;;;;;;;0.40;0.40;;;;;;;13.95;62.30;100069.28;5013231;28;20042;-83
2023/09/23 01:25:22;;;;;;;0.40;0.40;;;;;;;13.84;62.54;100073.69;5015117;28;20104;-83
2023/09/23 01:27:49;;;;;;;0.40;0.40;;;;;;;13.85;62.79;100070.75;5016893;28;20411;-82
2023/09/23 01:30:20;;;;;;;0.50;0.50;;;;;;;13.76;63.04;100076.78;5013106;28;20418;-84
2023/09/23 01:32:49;;;;;;;0.40;0.40;;;;;;;13.73;63.24;100074.53;5013025;28;20081;-82
2023/09/23 01:35:17;;;;;;;0.40;0.40;;;;;;;13.75;63.32;100075.09;5012613;28;20053;-82
2023/09/23 01:37:45;;;;;;;0.40;0.40;;;;;;;13.74;63.22;100074.28;5012594;28;20054;-82
2023/09/23 01:40:19;;;;;;;0.50;0.50;;;;;;;13.71;63.34;100074.78;5011159;28;20048;-82
2023/09/23 01:42:51;;;;;;;0.50;0.50;;;;;;;13.63;63.57;100080.56;5011378;28;20081;-82
2023/09/23 01:45:19;;;;;;;0.47;0.47;;;;;;;13.56;63.98;100077.97;5012102;28;20050;-82
2023/09/23 01:47:47;;;;;;;0.45;0.45;;;;;;;13.50;64.22;100080.84;4994260;28;20471;-82
2023/09/23 01:50:19;;;;;;;0.40;0.40;;;;;;;13.49;64.20;100076.44;5012651;28;20435;-83
2023/09/23 01:52:46;;;;;;;0.40;0.40;;;;;;;13.44;64.53;100077.16;4979139;28;20058;-83
2023/09/23 01:55:16;;;;;;;0.50;0.50;;;;;;;13.37;64.89;100073.78;5012256;28;20046;-82
2023/09/23 01:57:47;;;;;;;0.50;0.50;;;;;;;13.40;64.88;100087.66;5010842;28;20556;-81
2023/09/23 02:00:28;;;;;;;0.50;0.50;;;;;;;13.51;64.51;100085.19;5010975;28;20581;-82
2023/09/23 02:02:57;;;;;;;0.40;0.40;;;;;;;13.52;64.41;100084.09;4996603;28;20050;-84
2023/09/23 02:05:28;;;;;;;0.47;0.47;;;;;;;13.54;64.37;100085.53;5011157;28;20101;-83
2023/09/23 02:07:55;;;;;;;0.47;0.47;;;;;;;13.50;64.37;100083.53;5010712;28;20042;-82
2023/09/23 02:10:26;;;;;;;0.40;0.40;;;;;;;13.45;64.59;100092.38;5010577;28;20073;-82
2023/09/23 02:12:57;;;;;;;0.40;0.40;;;;;;;13.44;64.68;100086.16;5010686;28;20050;-83
2023/09/23 02:15:27;;;;;;;0.50;0.50;;;;;;;13.43;64.58;100081.75;5011877;28;20465;-82
2023/09/23 02:17:54;;;;;;;0.43;0.43;;;;;;;13.39;64.84;100086.03;5011036;28;20058;-82
2023/09/23 02:20:22;;;;;;;0.50;0.50;;;;;;;13.39;64.83;100091.47;5011896;28;20056;-83
2023/09/23 02:22:55;;;;;;;0.50;0.50;;;;;;;13.39;64.80;100087.88;5026811;28;20049;-82
2023/09/23 02:25:24;;;;;;;0.50;0.50;;;;;;;13.37;64.99;100090.03;5011738;28;20069;-82
2023/09/23 02:27:53;;;;;;;0.50;0.50;;;;;;;13.37;65.02;100084.63;5010631;28;20045;-82
2023/09/23 02:30:21;;;;;;;0.40;0.40;;;;;;;13.36;64.78;100094.63;5010276;28;20789;-82
2023/09/23 02:32:49;;;;;;;0.45;0.45;;;;;;;13.36;64.94;100086.47;5011028;28;20050;-82
2023/09/23 02:35:17;;;;;;;0.50;0.50;;;;;;;13.35;64.96;100090.25;5010286;28;20534;-82
2023/09/23 02:37:46;;;;;;;0.50;0.50;;;;;;;13.32;65.02;100090.75;5011682;28;20129;-82
2023/09/23 02:40:14;;;;;;;0.50;0.50;;;;;;;13.39;64.86;100099.59;5011537;28;20054;-81
2023/09/23 02:42:45;;;;;;;0.40;0.40;;;;;;;13.42;64.50;100093.69;5010327;28;20069;-81
2023/09/23 02:45:15;;;;;;;0.50;0.50;;;;;;;13.38;64.44;100089.78;5011840;28;20050;-81
2023/09/23 02:47:43;;;;;;;0.50;0.50;;;;;;;13.40;64.48;100095.81;5012029;28;20136;-82
2023/09/23 02:50:13;;;;;;;0.40;0.40;;;;;;;13.36;64.75;100093.78;5011982;28;20042;-82
2023/09/23 02:52:44;;;;;;;0.50;0.50;;;;;;;13.35;65.05;100094.88;4994435;28;20050;-82
2023/09/23 02:55:14;;;;;;;0.50;0.50;;;;;;;13.27;65.29;100095.19;5012008;28;20141;-82
2023/09/23 02:57:49;;;;;;;0.50;0.50;;;;;;;13.20;65.41;100095.31;5010321;28;20527;-82
2023/09/23 03:00:20;;;;;;;0.50;0.50;;;;;;;13.17;65.55;100090.34;5014780;28;20588;-83
2023/09/23 03:02:58;;;;;;;0.40;0.40;;;;;;;13.11;65.90;100094.00;5014675;28;20057;-82
2023/09/23 03:05:29;;;;;;;0.40;0.40;;;;;;;13.09;66.03;100099.66;5015189;28;20049;-82
2023/09/23 03:08:00;;;;;;;0.50;0.50;;;;;;;13.08;65.82;100092.56;5014118;28;20046;-82
2023/09/23 03:10:34;;;;;;;0.50;0.50;;;;;;;13.08;66.15;100091.75;5015242;28;20132;-81
2023/09/23 03:13:06;;;;;;;0.40;0.40;;;;;;;13.09;66.08;100093.38;5015581;28;20081;-82
2023/09/23 03:15:44;;;;;;;0.47;0.47;;;;;;;13.07;66.11;100090.94;5013702;28;20133;-80
2023/09/23 03:18:15;;;;;;;0.50;0.50;;;;;;;13.02;66.12;100098.94;5015119;28;20112;-81
2023/09/23 03:20:44;;;;;;;0.50;0.50;;;;;;;13.00;66.29;100098.34;5013639;28;20046;-82
2023/09/23 03:23:12;;;;;;;0.40;0.40;;;;;;;13.04;66.25;100101.41;5015444;28;20046;-83
2023/09/23 03:25:44;;;;;;;0.50;0.50;;;;;;;13.05;66.10;100103.06;5014669;28;20049;-83
2023/09/23 03:28:16;;;;;;;0.50;0.50;;;;;;;13.03;66.20;100100.56;5015325;28;20476;-83
2023/09/23 03:30:49;;;;;;;0.40;0.40;;;;;;;13.01;66.27;100108.97;5015529;28;20060;-82
2023/09/23 03:33:21;;;;;;;0.50;0.50;;;;;;;12.97;66.37;100101.53;5013485;28;20389;-82
2023/09/23 03:35:49;;;;;;;0.40;0.40;;;;;;;13.01;66.32;100108.97;5014834;28;20054;-82
2023/09/23 03:38:17;;;;;;;0.50;0.50;;;;;;;13.05;66.07;100113.91;5013483;28;20062;-82
2023/09/23 03:40:52;;;;;;;0.50;0.50;;;;;;;13.07;66.22;100111.78;5014533;28;20049;-83
2023/09/23 03:43:22;;;;;;;0.40;0.40;;;;;;;13.04;66.50;100114.94;5013077;28;20401;-82
2023/09/23 03:45:51;;;;;;;0.50;0.50;;;;;;;13.03;66.27;100114.13;5013307;28;20473;-82
2023/09/23 03:48:19;;;;;;;0.50;0.50;;;;;;;13.00;66.34;100115.41;5013113;28;20049;-82
2023/09/23 03:50:51;;;;;;;0.50;0.50;;;;;;;13.05;66.39;100114.72;5014552;28;20060;-82
2023/09/23 03:53:23;;;;;;;0.45;0.45;;;;;;;13.02;66.40;100121.44;5014391;28;20551;-82
2023/09/23 03:55:55;;;;;;;0.50;0.50;;;;;;;12.99;66.62;100116.50;5014538;28;20061;-83
2023/09/23 03:58:24;;;;;;;0.50;0.50;;;;;;;13.04;66.49;100117.66;4997056;28;20176;-82
2023/09/23 04:00:56;;;;;;;0.50;0.50;;;;;;;13.07;66.27;100122.63;5017584;28;20073;-82
2023/09/23 04:03:23;;;;;;;0.50;0.50;;;;;;;13.10;66.31;100128.41;5014463;28;20050;-82
2023/09/23 04:05:57;;;;;;;0.50;0.50;;;;;;;13.12;65.99;100125.47;5013464;28;20120;-82
2023/09/23 04:08:27;;;;;;;0.50;0.50;;;;;;;13.15;66.01;100133.13;5012771;28;20452;-81
2023/09/23 04:10:54;;;;;;;0.50;0.50;;;;;;;13.17;66.08;100133.72;5012816;28;20458;-81
2023/09/23 04:13:22;;;;;;;0.50;0.50;;;;;;;13.20;66.02;100125.13;5013843;28;20085;-82
2023/09/23 04:15:49;;;;;;;0.50;0.50;;;;;;;13.24;65.85;100129.00;5012646;28;20081;-82
2023/09/23 04:18:18;;;;;;;0.50;0.50;;;;;;;13.25;65.66;100127.94;5014326;28;20050;-82
2023/09/23 04:20:48;;;;;;;0.50;0.50;;;;;;;13.30;65.47;100136.22;5013881;28;20408;-80
2023/09/23 04:23:16;;;;;;;0.50;0.50;;;;;;;13.32;65.54;100138.69;5013850;28;20061;-82
2023/09/23 04:25:43;;;;;;;0.50;0.50;;;;;;;13.30;65.72;100138.94;5012739;28;20056;-82
2023/09/23 04:28:11;;;;;;;0.50;0.50;;;;;;;13.35;65.49;100140.97;5014083;28;20045;-81
2023/09/23 04:30:38;;;;;;;0.50;0.50;;;;;;;13.41;65.29;100140.00;5013994;28;20140;-82
2023/09/23 04:33:05;;;;;;;0.50;0.50;;;;;;;13.42;65.26;100134.34;5013558;28;20464;-82
2023/09/23 04:35:34;;;;;;;0.50;0.50;;;;;;;13.49;65.04;100136.13;5013306;28;20132;-81
2023/09/23 04:38:02;;;;;;;0.50;0.50;;;;;;;13.50;65.05;100135.88;5012377;28;20088;-81
2023/09/23 04:40:30;;;;;;;0.50;0.50;;;;;;;13.60;64.49;100138.84;5012992;28;20084;-81
2023/09/23 04:42:57;;;;;;;0.50;0.50;;;;;;;13.65;64.58;100147.09;5013539;28;20107;-82
2023/09/23 04:45:24;;;;;;;0.50;0.50;;;;;;;13.69;64.37;100147.41;5013591;28;20073;-81
2023/09/23 04:47:51;;;;;;;0.50;0.50;;;;;;;13.75;64.03;100143.78;5013851;28;20112;-82
2023/09/23 04:50:23;;;;;;;0.50;0.50;;;;;;;13.83;63.96;100148.84;5013039;28;20052;-81
2023/09/23 04:52:51;;;;;;;0.50;0.50;;;;;;;13.90;63.55;100150.59;5013498;28;20045;-82
2023/09/23 04:55:19;;;;;;;0.47;0.47;;;;;;;13.96;63.27;100153.19;5013658;28;20061;-81
2023/09/23 04:57:46;;;;;;;0.50;0.50;;;;;;;14.06;63.44;100155.28;5013387;28;20618;-82
2023/09/23 05:00:18;;;;;;;0.40;0.40;;;;;;;14.13;62.78;100142.41;5012185;28;20107;-83
2023/09/23 05:02:49;;;;;;;0.50;0.50;;;;;;;14.24;61.98;100143.44;5000312;28;20058;-82
2023/09/23 05:05:17;;;;;;;0.43;0.43;;;;;;;14.32;62.24;100152.00;5003629;28;20480;-82
2023/09/23 05:07:45;;;;;;;0.50;0.50;;;;;;;14.41;61.71;100144.31;5001569;28;20050;-82
2023/09/23 05:10:12;;;;;;;0.50;0.50;;;;;;;14.54;61.51;100153.28;4999588;28;20085;-83
2023/09/23 05:12:41;;;;;;;0.50;0.50;;;;;;;14.54;61.00;100139.72;5002634;28;20069;-82
2023/09/23 05:15:14;;;;;;;0.50;0.50;;;;;;;14.69;60.54;100140.81;4997848;28;20054;-85
2023/09/23 05:17:43;;;;;;;;;;;;;;;14.88;60.16;100152.28;5000692;28;20050;-83
2023/09/23 05:20:21;;;;;;;0.50;0.50;;;;;;;14.88;59.82;100143.31;5016485;28;19961;-83
2023/09/23 05:22:49;;;;;;;0.50;0.50;;;;;;;14.99;59.75;100150.56;4997501;28;20060;-83
2023/09/23 05:25:16;;;;;;;0.50;0.50;;;;;;;15.07;59.59;100147.44;4998823;28;20053;-84
2023/09/23 05:27:44;;;;;;;0.50;0.50;;;;;;;15.19;59.40;100158.22;5009696;28;20578;-83
2023/09/23 05:30:12;;;;;;;0.45;0.45;;;;;;;15.29;58.91;100160.28;5006798;28;20050;-83
2023/09/23 05:32:39;;;;;;;0.40;0.40;;;;;;;15.45;58.72;100162.19;5012699;28;20304;-86
2023/09/23 05:35:10;;;;;;;0.40;0.40;;;;;;;15.47;58.47;100157.34;5008393;28;20105;-85
2023/09/23 05:37:42;;;;;;;0.50;0.50;;;;;;;15.59;58.21;100165.38;4992812;28;20050;-85
2023/09/23 05:42:53;;;;;;;0.43;0.43;;;;;;;15.76;57.56;100157.25;5017845;28;20047;-83
2023/09/23 05:45:24;;;;;;;0.40;0.40;;;;;;;15.86;57.09;100165.53;5004905;28;20057;-84
2023/09/23 05:47:52;;;;;;;0.40;0.40;;;;;;;15.92;56.96;100153.63;5010876;28;20450;-85
2023/09/23 05:50:20;;;;;;;0.40;0.40;;;;;;;16.09;56.57;100169.94;5014261;28;20105;-85
2023/09/23 05:52:48;;;;;;;0.50;0.50;;;;;;;16.19;56.13;100174.69;5003777;28;20540;-81
2023/09/23 05:55:16;;;;;;;0.38;0.38;;;;;;;16.23;55.86;100167.66;5011260;28;20073;-81
2023/09/23 05:57:43;;;;;;;0.45;0.45;;;;;;;16.25;55.20;100152.72;5011080;28;20046;-81
2023/09/23 06:00:12;;;;;;;0.40;0.40;;;;;;;16.47;54.62;100170.94;5006895;28;20045;-81
2023/09/23 06:02:41;;;;;;;0.40;0.40;;;;;;;16.58;54.60;100182.78;5025957;28;20042;-82
2023/09/23 06:05:08;;;;;;;0.50;0.50;;;;;;;16.60;54.76;100175.97;5011256;28;20061;-82
2023/09/23 06:07:35;;;;;;;0.40;0.40;;;;;;;16.75;54.69;100175.34;5011188;28;20056;-82
2023/09/23 06:10:04;;;;;;;0.40;0.40;;;;;;;16.81;54.27;100171.63;5006429;28;20132;-82
2023/09/23 06:12:31;;;;;;;0.50;0.50;;;;;;;16.95;54.08;100182.94;5006880;28;20516;-83
2023/09/23 06:15:00;;;;;;;0.40;0.40;;;;;;;16.92;53.95;100155.38;4996856;28;20482;-82
2023/09/23 06:17:34;;;;;;;0.40;0.40;;;;;;;17.18;53.64;100187.22;5004151;28;20060;-82
2023/09/23 06:20:03;;;;;;;0.40;0.40;;;;;;;17.35;53.50;100180.84;5024306;28;20124;-82
2023/09/23 06:22:35;;;;;;;0.40;0.40;;;;;;;17.39;52.79;100165.56;5001022;28;20077;-82
2023/09/23 06:25:03;;;;;;;0.40;0.40;;;;;;;17.55;52.52;100170.06;4992163;28;20054;-81
2023/09/23 06:27:32;;;;;;;0.40;0.40;;;;;;;17.54;51.69;100165.69;4991583;28;20050;-82
2023/09/23 06:29:59;;;;;;;0.40;0.40;;;;;;;17.54;51.15;100157.50;5006612;28;20061;-82
2023/09/23 06:32:32;;;;;;;0.40;0.40;;;;;;;17.72;51.26;100175.34;5006574;28;20042;-82
2023/09/23 06:34:59;;;;;;;0.50;0.50;;;;;;;17.89;50.85;100177.94;5006472;28;20046;-83
2023/09/23 06:37:26;;;;;;;0.30;0.30;;;;;;;17.95;50.96;100171.41;4995613;28;20137;-83
2023/09/23 06:39:54;;;;;;;0.50;0.50;;;;;;;17.92;50.64;100163.75;4993113;28;20078;-83
2023/09/23 06:42:21;;;;;;;0.40;0.40;;;;;;;18.04;50.32;100153.44;4992016;28;20058;-83
2023/09/23 06:44:48;;;;;;;0.40;0.40;;;;;;;18.12;50.28;100163.84;5006743;28;20430;-83
2023/09/23 06:47:15;;;;;;;0.40;0.40;;;;;;;18.30;49.83;100184.41;4991888;28;20487;-83
2023/09/23 06:49:43;;;;;;;0.40;0.40;;;;;;;18.34;49.77;100157.41;4991377;28;20054;-84
2023/09/23 06:52:11;;;;;;;0.40;0.40;;;;;;;18.52;49.03;100167.84;4991644;28;20070;-83
2023/09/23 06:54:39;;;;;;;0.40;0.40;;;;;;;18.63;48.78;100168.69;5004108;28;20461;-83
2023/09/23 06:57:06;;;;;;;0.40;0.40;;;;;;;18.84;48.58;100177.81;5029031;28;20141;-82
2023/09/23 06:59:34;;;;;;;0.40;0.40;;;;;;;18.92;48.10;100165.50;5015385;28;20085;-83
2023/09/23 07:02:01;;;;;;;0.40;0.40;;;;;;;19.07;47.38;100167.44;5013711;28;20042;-83
2023/09/23 07:04:28;;;;;;;0.40;0.40;;;;;;;19.12;47.63;100168.25;5011840;28;20115;-83
2023/09/23 07:06:55;;;;;;;0.40;0.40;;;;;;;19.26;47.43;100165.78;5012188;28;20050;-82
2023/09/23 07:09:23;;;;;;;0.43;0.43;;;;;;;19.44;46.92;100169.88;5011650;28;20054;-84
2023/09/23 07:11:50;;;;;;;0.40;0.40;;;;;;;19.60;46.30;100170.72;5011342;28;20042;-83
2023/09/23 07:14:18;;;;;;;0.40;0.40;;;;;;;19.75;46.85;100170.72;5007972;28;20123;-83
2023/09/23 07:16:45;;;;;;;0.40;0.40;;;;;;;19.79;45.82;100163.56;5002098;28;20093;-82
2023/09/23 07:19:14;;;;;;;0.40;0.40;;;;;;;19.88;45.71;100175.59;5006634;28;20575;-82
2023/09/23 07:21:41;;;;;;;0.40;0.40;;;;;;;19.95;45.14;100178.03;4991473;28;20050;-81
2023/09/23 07:24:09;;;;;;;0.40;0.40;;;;;;;19.91;44.95;100160.53;4991422;28;20513;-82
2023/09/23 07:26:39;;;;;;;0.40;0.40;;;;;;;20.01;45.21;100159.69;5007914;28;20050;-84
2023/09/23 07:29:07;;;;;;;0.40;0.40;;;;;;;20.29;45.01;100175.47;5002464;28;20081;-84
2023/09/23 07:31:34;;;;;;;0.40;0.40;;;;;;;20.31;44.40;100145.03;5007507;28;20060;-84
2023/09/23 07:34:01;;;;;;;0.40;0.40;;;;;;;20.53;43.89;100161.94;5005443;28;20060;-84
2023/09/23 07:36:29;;;;;;;0.40;0.40;;;;;;;20.60;43.87;100158.88;5010269;28;20050;-86
2023/09/23 07:38:56;;;;;;;0.40;0.40;;;;;;;20.84;43.33;100180.97;5004941;28;20054;-85
2023/09/23 07:41:23;;;;;;;0.40;0.40;;;;;;;20.83;43.22;100164.78;4993166;28;20058;-85
2023/09/23 07:43:51;;;;;;;0.40;0.40;;;;;;;21.02;42.48;100173.19;5003256;28;20417;-84
2023/09/23 07:46:18;;;;;;;0.40;0.40;;;;;;;21.18;42.69;100175.50;5011794;28;20056;-82
2023/09/23 07:48:46;;;;;;;0.40;0.40;;;;;;;21.16;42.06;100164.00;5013638;28;20049;-85
2023/09/23 07:51:14;;;;;;;0.45;0.45;;;;;;;21.25;41.91;100168.88;5012164;28;20513;-84
2023/09/23 07:53:41;;;;;;;0.40;0.40;;;;;;;21.38;41.78;100165.47;5006275;28;20044;-82
2023/09/23 07:56:09;;;;;;;0.50;0.50;;;;;;;21.59;40.88;100179.84;5010805;28;20057;-84
2023/09/23 07:58:36;;;;;;;0.50;0.50;;;;;;;21.79;39.94;100165.09;5013878;28;20531;-85
2023/09/23 08:01:04;;;;;;;0.50;0.50;;;;;;;22.27;39.95;100189.88;5015007;28;20046;-87
2023/09/23 08:03:37;;;;;;;0.50;0.50;;;;;;;22.72;38.63;100171.13;5017398;28;20076;-83
2023/09/23 08:06:04;;;;;;;0.50;0.50;;;;;;;22.90;38.27;100173.06;5009492;28;20069;-83
2023/09/23 08:08:32;;;;;;;0.45;0.45;;;;;;;22.96;37.96;100151.78;5004488;28;20049;-83
2023/09/23 08:10:59;;;;;;;0.40;0.40;;;;;;;23.31;37.03;100152.34;4999052;28;20153;-86
2023/09/23 08:13:26;;;;;;;0.40;0.40;;;;;;;23.75;36.24;100162.91;5000466;28;20046;-87
2023/09/23 08:15:58;;;;;;;0.47;0.47;;;;;;;24.04;35.92;100172.81;5006275;28;20532;-84
2023/09/23 08:18:25;;;;;;;0.50;0.50;;;;;;;24.27;35.20;100161.88;5012324;28;20050;-85
2023/09/23 08:20:57;;;;;;;0.50;0.50;;;;;;;24.38;34.90;100172.41;5007584;28;20137;-84
2023/09/23 08:23:24;;;;;;;0.50;0.50;;;;;;;24.65;34.75;100176.25;4995729;28;20132;-85
2023/09/23 08:25:53;;;;;;;0.40;0.40;;;;;;;24.83;34.07;100167.00;5004292;28;20145;-85
2023/09/23 08:28:20;;;;;;;0.43;0.43;;;;;;;24.88;34.25;100161.34;5002612;28;20055;-84
2023/09/23 08:30:49;;;;;;;0.40;0.40;;;;;;;25.17;33.98;100173.97;5008715;28;20081;-86
2023/09/23 08:33:17;;;;;;;0.40;0.40;;;;;;;25.15;33.18;100167.09;5007350;28;20053;-87
2023/09/23 08:35:48;;;;;;;0.40;0.40;;;;;;;25.37;32.96;100166.28;5004244;28;20050;-87
2023/09/23 08:38:16;;;;;;;0.50;0.50;;;;;;;25.45;32.42;100165.53;5014242;28;20056;-85
2023/09/23 08:40:45;;;;;;;0.40;0.40;;;;;;;25.79;32.28;100159.38;5004955;28;20076;-86
2023/09/23 08:43:12;;;;;;;0.40;0.40;;;;;;;26.23;31.48;100148.47;4998106;28;20123;-87
2023/09/23 08:45:43;;;;;;;0.43;0.43;;;;;;;26.33;31.80;100164.78;5011330;28;20072;-88
2023/09/23 08:48:12;;;;;;;0.40;0.40;;;;;;;26.37;31.27;100158.28;4977539;28;20462;-87
2023/09/23 08:50:51;;;;;;;0.40;0.40;;;;;;;26.65;30.27;100146.16;5008603;28;20480;-86
2023/09/23 08:53:19;;;;;;;0.40;0.40;;;;;;;26.50;30.37;100150.19;5009076;28;20069;-85
2023/09/23 08:55:48;;;;;;;0.40;0.40;;;;;;;26.30;30.53;100152.41;5006548;28;20049;-86
2023/09/23 08:58:15;;;;;;;0.40;0.40;;;;;;;26.60;30.26;100138.81;5011076;28;20527;-86
2023/09/23 09:00:46;;;;;;;0.40;0.40;;;;;;;26.76;29.71;100134.44;5012064;28;20600;-86
2023/09/23 09:03:14;;;;;;;0.40;0.40;;;;;;;26.97;29.58;100142.91;5011871;28;20538;-86
2023/09/23 09:05:42;;;;;;;0.40;0.40;;;;;;;27.18;29.48;100126.44;4991537;28;20729;-85
2023/09/23 09:08:10;;;;;;;0.40;0.40;;;;;;;27.66;29.26;100135.63;4998729;28;20054;-84
2023/09/23 09:10:37;;;;;;;0.40;0.40;;;;;;;27.90;28.78;100106.50;5001064;28;20050;-85
2023/09/23 09:13:06;;;;;;;0.40;0.40;;;;;;;28.09;28.48;100124.34;5012937;28;20089;-85
2023/09/23 09:15:35;;;;;;;0.40;0.40;;;;;;;28.23;27.94;100143.53;5006202;28;20077;-85
2023/09/23 09:18:02;;;;;;;0.40;0.40;;;;;;;28.30;28.07;100138.25;5015811;28;20061;-85
2023/09/23 09:20:30;;;;;;;0.40;0.40;;;;;;;28.68;26.86;100136.56;5012136;28;20528;-84
2023/09/23 09:22:58;;;;;;;0.40;0.40;;;;;;;28.67;26.39;100146.06;5000344;28;20061;-86
2023/09/23 09:25:25;;;;;;;0.40;0.40;;;;;;;28.27;27.05;100138.94;4990707;28;20050;-82
2023/09/23 09:27:53;;;;;;;0.40;0.40;;;;;;;28.37;27.18;100143.28;5001101;28;20047;-83
2023/09/23 09:30:21;;;;;;;0.40;0.40;;;;;;;28.12;27.20;100133.16;4992239;28;20054;-83
2023/09/23 09:32:48;;;;;;;0.40;0.40;;;;;;;28.01;27.39;100138.28;4998866;28;20433;-83
2023/09/23 09:35:20;;;;;;;0.40;0.40;;;;;;;28.37;26.77;100126.63;5004264;28;20049;-90
2023/09/23 09:37:48;;;;;;;0.40;0.40;;;;;;;28.57;26.95;100130.59;5019294;28;20050;-91
2023/09/23 09:40:30;;;;;;;0.40;0.40;;;;;;;28.96;26.24;100145.94;5011333;28;20062;-89
2023/09/23 09:42:59;;;;;;;0.40;0.40;;;;;;;28.74;26.47;100140.78;4977721;28;20050;-89
2023/09/23 09:45:27;;;;;;;0.30;0.30;;;;;;;28.75;26.33;100109.06;4996261;28;20070;-89
2023/09/23 09:47:57;;;;;;;0.40;0.40;;;;;;;28.83;26.53;100137.91;4997682;28;20042;-88
2023/09/23 09:50:26;;;;;;;0.40;0.40;;;;;;;28.86;26.14;100128.88;4994309;28;20042;-88
2023/09/23 09:53:19;;;;;;;0.40;0.40;;;;;;;29.27;26.02;100136.41;4978222;28;20078;-93
2023/09/23 09:55:47;;;;;;;0.35;0.35;;;;;;;29.45;25.50;100127.84;4994280;28;20496;-91
2023/09/23 09:58:17;;;;;;;0.40;0.40;;;;;;;29.26;25.00;100128.38;5016701;28;20081;-88
2023/09/23 10:00:47;;;;;;;0.40;0.40;;;;;;;29.29;25.39;100136.03;5000069;28;20050;-88
2023/09/23 10:03:14;;;;;;;0.40;0.40;;;;;;;29.34;24.77;100150.53;5013303;28;20113;-86
2023/09/23 10:05:46;;;;;;;0.40;0.40;;;;;;;29.29;24.95;100122.13;5013084;28;20155;-86
2023/09/23 10:08:19;;;;;;;0.30;0.30;;;;;;;28.98;25.11;100140.06;5014682;28;20053;-89
2023/09/23 10:10:49;;;;;;;0.30;0.30;;;;;;;29.28;24.61;100132.44;5015652;28;20049;-89
2023/09/23 10:13:18;;;;;;;0.40;0.40;;;;;;;29.45;24.85;100131.47;5022278;28;20080;-90
2023/09/23 10:15:46;;;;;;;0.40;0.40;;;;;;;29.52;24.55;100131.69;5014849;28;20104;-88
2023/09/23 10:18:16;;;;;;;0.40;0.40;;;;;;;29.81;24.10;100144.63;5028296;28;20045;-88
2023/09/23 10:20:56;;;;;;;0.40;0.40;;;;;;;29.81;24.15;100133.50;5009860;28;20318;-87
2023/09/23 10:23:24;;;;;;;0.40;0.40;;;;;;;29.98;23.69;100142.78;5010744;28;20546;-87
2023/09/23 10:25:52;;;;;;;0.40;0.40;;;;;;;30.35;23.70;100140.00;5011112;28;20046;-89
2023/09/23 10:28:21;;;;;;;0.40;0.40;;;;;;;30.54;23.54;100125.47;5010265;28;20486;-88
2023/09/23 10:31:03;;;;;;;0.30;0.30;;;;;;;30.22;23.75;100117.72;4995881;28;20054;-87
2023/09/23 10:33:34;;;;;;;0.30;0.30;;;;;;;29.88;24.33;100148.78;4981132;28;20108;-87
2023/09/23 10:36:03;;;;;;;0.30;0.30;;;;;;;29.66;23.68;100162.00;4992625;28;20379;-87
2023/09/23 10:38:35;;;;;;;0.40;0.40;;;;;;;29.39;23.94;100138.38;4992817;28;20058;-85
2023/09/23 10:41:05;;;;;;;0.40;0.40;;;;;;;29.38;24.13;100118.09;4993204;28;20063;-85
2023/09/23 10:43:33;;;;;;;0.40;0.40;;;;;;;29.43;24.01;100152.41;4991987;28;20145;-88
2023/09/23 10:46:02;;;;;;;0.25;0.25;;;;;;;28.46;24.97;100135.75;4996715;28;20054;-87
2023/09/23 10:48:29;;;;;;;0.50;0.50;;;;;;;27.54;25.83;100105.81;4990702;28;20046;-86
2023/09/23 10:50:58;;;;;;;0.43;0.43;;;;;;;27.29;26.57;100109.47;4992167;28;20053;-86
2023/09/23 10:53:29;;;;;;;0.50;0.50;;;;;;;28.96;25.03;100095.94;4990530;28;20101;-87
2023/09/23 10:56:01;;;;;;;0.40;0.40;;;;;;;30.13;23.68;100114.25;4992394;28;20046;-87
2023/09/23 10:58:31;;;;;;;0.43;0.43;;;;;;;30.71;23.14;100110.44;4991944;28;20081;-86
2023/09/23 11:00:58;;;;;;;0.40;0.40;;;;;;;30.80;22.18;100133.41;4992136;28;20050;-87
2023/09/23 11:03:27;;;;;;;0.40;0.40;;;;;;;30.39;22.07;100125.03;4975385;28;20058;-85
2023/09/23 11:05:55;;;;;;;0.40;0.40;;;;;;;30.41;22.39;100121.88;4994616;28;20416;-87
2023/09/23 11:08:23;;;;;;;0.40;0.40;;;;;;;30.82;21.91;100112.41;4991029;28;20055;-85
2023/09/23 11:10:50;;;;;;;0.40;0.40;;;;;;;30.33;22.27;100120.06;4991398;28;20145;-87
2023/09/23 11:13:18;;;;;;;0.38;0.38;;;;;;;30.17;22.31;100104.03;4992649;28;20137;-87
2023/09/23 11:15:45;;;;;;;0.40;0.40;;;;;;;30.44;22.17;100144.28;4989942;28;20051;-85
2023/09/23 11:18:17;;;;;;;0.40;0.40;;;;;;;30.86;21.98;100098.56;5006251;28;20101;-87
2023/09/23 11:20:47;;;;;;;0.40;0.40;;;;;;;30.46;22.21;100102.16;4980128;28;20039;-88
2023/09/23 11:23:15;;;;;;;0.40;0.40;;;;;;;30.11;22.45;100119.38;5005858;28;20062;-87
2023/09/23 11:25:44;;;;;;;0.40;0.40;;;;;;;30.34;22.04;100105.78;5009040;28;20046;-89
2023/09/23 11:28:21;;;;;;;0.40;0.40;;;;;;;30.55;22.07;100105.63;5023372;28;20060;-90
2023/09/23 11:30:51;;;;;;;0.40;0.40;;;;;;;30.68;21.43;100089.66;5006909;28;20058;-90
2023/09/23 11:33:33;;;;;;;0.40;0.40;;;;;;;30.86;21.86;100085.44;4994741;28;20073;-90
2023/09/23 11:36:03;;;;;;;0.30;0.30;;;;;;;31.55;20.98;100096.50;5008503;28;20053;-90